Time;durP1;ratioP1;P1;durP2;ratioP2;P2;SDS_P1;SDS_P2;PMS_P1;PMS_P2;Temp;Humidity;BMP_temperature;BMP_pressure;BME280_temperature;BME280_humidity;BME280_pressure;Samples;Min_cycle;Max_cycle;Signal;HPM_P1;HPM_P2
2022/03/14 00:00:46;;;;;;;28.13;18.77;;;9.20;99.90;;;;;;5115527;28;20044;-73
2022/03/14 00:03:12;;;;;;;30.40;19.85;;;9.20;99.90;;;;;;5115779;28;20354;-73
2022/03/14 00:05:38;;;;;;;36.90;20.25;;;9.20;99.90;;;;;;5115621;28;20020;-73
2022/03/14 00:08:05;;;;;;;29.92;19.27;;;9.20;99.90;;;;;;5114421;28;20020;-73
2022/03/14 00:10:31;;;;;;;31.05;19.85;;;9.20;99.90;;;;;;5115575;28;20477;-73
2022/03/14 00:12:58;;;;;;;30.00;19.67;;;9.20;99.90;;;;;;5115489;28;20023;-73
2022/03/14 00:15:28;;;;;;;28.77;19.42;;;9.20;99.90;;;;;;5115498;28;20043;-73
2022/03/14 00:17:54;;;;;;;31.88;19.95;;;9.10;99.90;;;;;;5114096;28;20019;-73
2022/03/14 00:20:19;;;;;;;29.58;19.25;;;9.10;99.90;;;;;;5113987;28;20035;-73
2022/03/14 00:22:45;;;;;;;29.48;19.23;;;9.10;99.90;;;;;;5097074;28;20028;-73
2022/03/14 00:25:11;;;;;;;30.25;19.90;;;9.00;99.90;;;;;;5113979;28;20024;-73
2022/03/14 00:27:37;;;;;;;32.58;19.80;;;9.00;99.90;;;;;;5115182;28;20028;-73
2022/03/14 00:30:06;;;;;;;33.33;22.20;;;8.90;99.90;;;;;;5115140;28;20020;-73
2022/03/14 00:32:31;;;;;;;31.02;19.23;;;8.90;99.90;;;;;;5115095;28;20393;-73
2022/03/14 00:34:57;;;;;;;32.42;20.65;;;8.90;99.90;;;;;;5115098;28;20031;-73
2022/03/14 00:37:23;;;;;;;31.67;20.08;;;8.90;99.90;;;;;;5115295;28;20525;-73
2022/03/14 00:39:49;;;;;;;33.42;21.02;;;8.80;99.90;;;;;;5114936;28;20051;-73
2022/03/14 00:42:15;;;;;;;34.88;20.70;;;8.70;99.90;;;;;;5114876;28;20371;-72
2022/03/14 00:44:42;;;;;;;31.27;20.08;;;8.70;99.90;;;;;;5112936;28;20030;-73
2022/03/14 00:47:08;;;;;;;36.05;20.40;;;8.70;99.90;;;;;;5113633;28;20500;-73
2022/03/14 00:49:34;;;;;;;34.65;21.80;;;8.70;99.90;;;;;;5096475;28;20024;-73
2022/03/14 00:52:00;;;;;;;38.08;22.35;;;8.60;99.90;;;;;;5113520;28;20439;-73
2022/03/14 00:54:25;;;;;;;34.97;21.42;;;8.60;99.90;;;;;;5113563;28;20392;-73
2022/03/14 00:56:51;;;;;;;42.92;24.23;;;8.50;99.90;;;;;;5114644;28;20031;-73
2022/03/14 00:59:17;;;;;;;37.75;24.48;;;8.60;99.90;;;;;;5113045;28;20053;-73
2022/03/14 01:01:43;;;;;;;37.88;22.90;;;8.60;99.90;;;;;;5096457;28;20050;-73
2022/03/14 01:04:08;;;;;;;44.03;26.10;;;8.60;99.90;;;;;;5114500;28;20019;-73
2022/03/14 01:06:34;;;;;;;39.60;24.80;;;8.60;99.90;;;;;;5113296;28;20023;-73
2022/03/14 01:09:00;;;;;;;43.17;26.17;;;8.60;99.90;;;;;;5114438;28;20043;-73
2022/03/14 01:11:26;;;;;;;43.72;25.02;;;8.60;99.90;;;;;;5113079;28;20024;-72
2022/03/14 01:13:51;;;;;;;46.85;26.40;;;8.60;99.90;;;;;;5113194;28;20016;-73
2022/03/14 01:16:18;;;;;;;37.60;20.80;;;8.60;99.90;;;;;;5113088;28;20031;-72
2022/03/14 01:18:43;;;;;;;36.60;21.52;;;8.60;99.90;;;;;;5114257;28;20040;-73
2022/03/14 01:21:09;;;;;;;33.22;20.30;;;8.60;99.90;;;;;;5114112;28;20104;-73
2022/03/14 01:23:34;;;;;;;34.17;20.67;;;8.60;99.90;;;;;;5112978;28;20632;-73
2022/03/14 01:26:00;;;;;;;34.35;20.27;;;8.60;99.90;;;;;;5114113;28;20381;-73
2022/03/14 01:28:25;;;;;;;35.80;20.02;;;8.70;99.90;;;;;;5112785;28;20122;-73
2022/03/14 01:30:51;;;;;;;32.95;19.58;;;8.70;99.90;;;;;;5114111;28;20031;-73
2022/03/14 01:33:16;;;;;;;35.67;20.90;;;8.70;99.90;;;;;;5114013;28;20506;-73
2022/03/14 01:35:42;;;;;;;35.45;20.25;;;8.70;99.90;;;;;;5114011;28;20016;-73
2022/03/14 01:38:08;;;;;;;31.63;19.95;;;8.80;99.90;;;;;;5095682;28;20431;-73
2022/03/14 01:40:34;;;;;;;35.47;21.90;;;8.80;99.90;;;;;;5113833;28;20028;-73
2022/03/14 01:42:59;;;;;;;33.28;20.92;;;8.80;99.90;;;;;;5095592;28;20016;-74
2022/03/14 01:45:25;;;;;;;30.50;20.40;;;8.70;99.90;;;;;;5113828;28;20023;-73
2022/03/14 01:47:51;;;;;;;32.10;20.23;;;8.80;99.90;;;;;;5113888;28;20080;-73
2022/03/14 01:50:18;;;;;;;31.80;20.70;;;8.80;99.90;;;;;;5112430;28;20027;-73
2022/03/14 01:52:45;;;;;;;33.60;20.20;;;8.80;99.90;;;;;;5113722;28;20031;-73
2022/03/14 01:55:11;;;;;;;33.75;20.00;;;8.70;99.90;;;;;;5113510;28;20027;-73
2022/03/14 01:57:38;;;;;;;33.70;20.60;;;8.80;99.90;;;;;;5113644;28;20401;-73
2022/03/14 02:00:05;;;;;;;31.95;20.10;;;8.80;99.90;;;;;;5113399;28;20130;-73
2022/03/14 02:02:31;;;;;;;32.08;19.58;;;8.80;99.90;;;;;;5112357;28;20090;-73
2022/03/14 02:04:56;;;;;;;37.20;20.35;;;8.90;99.90;;;;;;5113601;28;20028;-73
2022/03/14 02:07:23;;;;;;;34.13;19.52;;;8.90;99.90;;;;;;5095539;28;20023;-73
2022/03/14 02:09:48;;;;;;;34.53;19.90;;;8.90;99.90;;;;;;5112498;28;20022;-73
2022/03/14 02:12:14;;;;;;;31.77;19.55;;;8.90;99.90;;;;;;5112280;28;20063;-73
2022/03/14 02:14:40;;;;;;;32.55;20.50;;;8.90;99.90;;;;;;5113517;28;20028;-73
2022/03/14 02:17:07;;;;;;;31.15;20.15;;;8.90;99.90;;;;;;5113508;28;20028;-73
2022/03/14 02:19:34;;;;;;;37.13;21.60;;;8.90;99.90;;;;;;5112230;28;20073;-73
2022/03/14 02:22:00;;;;;;;32.45;20.58;;;8.90;99.90;;;;;;5113451;28;20026;-73
2022/03/14 02:24:28;;;;;;;31.17;19.98;;;8.80;99.90;;;;;;5113449;28;20540;-73
2022/03/14 02:26:54;;;;;;;32.55;21.23;;;8.90;99.90;;;;;;5113472;28;20098;-73
2022/03/14 02:29:20;;;;;;;37.40;22.88;;;8.90;99.90;;;;;;5112408;28;20130;-73
2022/03/14 02:31:46;;;;;;;33.83;21.63;;;8.80;99.90;;;;;;5112139;28;20024;-73
2022/03/14 02:34:12;;;;;;;34.03;21.13;;;8.80;99.90;;;;;;5113468;28;20492;-73
2022/03/14 02:36:39;;;;;;;34.65;21.17;;;8.80;99.90;;;;;;5113326;28;20023;-73
2022/03/14 02:39:06;;;;;;;30.98;21.30;;;8.70;99.90;;;;;;5113245;28;20019;-73
2022/03/14 02:41:32;;;;;;;36.40;22.65;;;8.70;99.90;;;;;;5113267;28;20016;-73
2022/03/14 02:43:58;;;;;;;34.22;23.08;;;8.70;99.90;;;;;;5113133;28;20035;-73
2022/03/14 02:46:23;;;;;;;32.75;21.70;;;8.60;99.90;;;;;;5113189;28;20092;-73
2022/03/14 02:48:49;;;;;;;36.25;20.05;;;8.60;99.90;;;;;;5094891;28;20049;-73
2022/03/14 02:51:14;;;;;;;38.22;21.92;;;8.60;99.90;;;;;;5113248;28;20478;-73
2022/03/14 02:53:40;;;;;;;36.70;22.38;;;8.50;99.90;;;;;;5113190;28;20027;-73
2022/03/14 02:56:06;;;;;;;34.35;21.45;;;8.50;99.90;;;;;;5113140;28;20138;-73
2022/03/14 02:58:33;;;;;;;36.72;22.33;;;8.60;99.90;;;;;;5113164;28;20415;-73
2022/03/14 03:01:00;;;;;;;37.70;23.08;;;8.60;99.90;;;;;;5111766;28;20032;-73
2022/03/14 03:03:26;;;;;;;31.85;21.90;;;8.60;99.90;;;;;;5111761;28;20073;-73
2022/03/14 03:05:52;;;;;;;34.63;21.25;;;8.60;99.90;;;;;;5113148;28;20644;-73
2022/03/14 03:08:18;;;;;;;35.55;21.77;;;8.60;99.90;;;;;;5114694;28;20102;-73
2022/03/14 03:10:44;;;;;;;36.58;23.40;;;8.60;99.90;;;;;;5115650;28;20022;-73
2022/03/14 03:13:11;;;;;;;38.58;22.67;;;8.60;99.90;;;;;;5115428;28;20376;-73
2022/03/14 03:15:37;;;;;;;37.35;23.63;;;8.60;99.90;;;;;;5115463;28;20023;-73
2022/03/14 03:18:05;;;;;;;36.15;23.50;;;8.60;99.90;;;;;;5116629;28;20503;-73
2022/03/14 03:20:31;;;;;;;39.70;24.70;;;8.60;99.90;;;;;;5115199;28;20028;-73
2022/03/14 03:22:56;;;;;;;36.15;25.05;;;8.50;99.90;;;;;;5115290;28;20023;-73
2022/03/14 03:25:22;;;;;;;41.67;26.50;;;8.50;99.90;;;;;;5116601;28;20024;-73
2022/03/14 03:27:48;;;;;;;42.40;26.27;;;8.50;99.90;;;;;;5115154;28;20016;-72
2022/03/14 03:30:14;;;;;;;39.70;25.45;;;8.40;99.90;;;;;;5115111;28;20477;-73
2022/03/14 03:32:39;;;;;;;44.47;27.60;;;8.30;99.90;;;;;;5116354;28;20491;-73
2022/03/14 03:35:05;;;;;;;42.72;26.90;;;8.30;99.90;;;;;;5115013;28;20058;-73
2022/03/14 03:37:32;;;;;;;44.78;27.52;;;8.20;99.90;;;;;;5115086;28;20020;-73
2022/03/14 03:39:57;;;;;;;44.28;28.52;;;8.10;99.90;;;;;;5116152;28;20024;-73
2022/03/14 03:42:23;;;;;;;49.58;28.40;;;8.10;99.90;;;;;;5116208;28;20020;-73
2022/03/14 03:44:48;;;;;;;46.35;28.02;;;8.10;99.90;;;;;;5114923;28;20027;-73
2022/03/14 03:47:14;;;;;;;43.85;28.70;;;8.00;99.90;;;;;;5097782;28;20389;-73
2022/03/14 03:49:39;;;;;;;43.65;26.67;;;8.10;99.90;;;;;;5115984;28;20031;-73
2022/03/14 03:52:07;;;;;;;45.92;26.45;;;8.10;99.90;;;;;;5114679;28;20030;-73
2022/03/14 03:54:32;;;;;;;41.30;25.70;;;8.10;99.90;;;;;;5114825;28;20464;-73
2022/03/14 03:56:58;;;;;;;43.67;25.38;;;8.20;99.90;;;;;;5115893;28;20059;-73
2022/03/14 03:59:23;;;;;;;46.42;24.92;;;8.20;99.90;;;;;;5115618;28;20056;-73
2022/03/14 04:01:49;;;;;;;42.33;25.55;;;8.20;99.90;;;;;;5115770;28;20019;-73
2022/03/14 04:04:15;;;;;;;41.53;24.23;;;8.10;99.90;;;;;;5115916;28;20032;-74
2022/03/14 04:06:41;;;;;;;41.65;26.23;;;8.10;99.90;;;;;;5114593;28;20497;-73
2022/03/14 04:09:07;;;;;;;42.55;26.52;;;8.10;99.90;;;;;;5115639;28;20016;-74
2022/03/14 04:11:35;;;;;;;45.10;27.38;;;8.10;99.90;;;;;;5097478;28;20028;-74
2022/03/14 04:14:02;;;;;;;45.60;26.80;;;8.00;99.90;;;;;;5115676;28;20016;-75
2022/03/14 04:16:29;;;;;;;46.22;26.27;;;8.00;99.90;;;;;;5115561;28;20043;-76
2022/03/14 04:18:55;;;;;;;55.72;27.88;;;8.00;99.90;;;;;;5114099;28;20024;-75
2022/03/14 04:21:21;;;;;;;49.78;27.23;;;8.00;99.90;;;;;;5115317;28;20038;-75
2022/03/14 04:23:48;;;;;;;46.30;26.20;;;7.90;99.90;;;;;;5097208;28;20106;-76
2022/03/14 04:26:13;;;;;;;42.35;25.67;;;7.90;99.90;;;;;;5113963;28;20065;-76
2022/03/14 04:28:41;;;;;;;48.58;28.10;;;7.90;99.90;;;;;;5113881;28;20023;-77
2022/03/14 04:31:08;;;;;;;44.28;27.48;;;7.90;99.90;;;;;;5113969;28;20022;-77
2022/03/14 04:33:34;;;;;;;44.00;26.95;;;7.90;99.90;;;;;;5115174;28;20500;-76
2022/03/14 04:36:00;;;;;;;45.72;27.65;;;7.80;99.90;;;;;;5115108;28;20023;-76
2022/03/14 04:38:26;;;;;;;45.47;27.88;;;7.80;99.90;;;;;;5115095;28;20034;-75
2022/03/14 04:40:52;;;;;;;46.40;28.30;;;7.80;99.90;;;;;;5114977;28;20063;-76
2022/03/14 04:43:18;;;;;;;44.55;28.23;;;7.80;99.90;;;;;;5113638;28;20058;-76
2022/03/14 04:45:43;;;;;;;51.53;28.42;;;7.70;99.90;;;;;;5113761;28;20016;-76
2022/03/14 04:48:09;;;;;;;50.65;28.33;;;7.70;99.90;;;;;;5113485;28;20020;-76
2022/03/14 04:50:36;;;;;;;49.75;29.58;;;7.70;99.90;;;;;;5113598;28;20473;-74
2022/03/14 04:53:02;;;;;;;52.70;29.45;;;7.70;99.90;;;;;;5114775;28;20019;-74
2022/03/14 04:55:28;;;;;;;55.60;31.35;;;7.70;99.90;;;;;;5114749;28;20028;-73
2022/03/14 04:57:54;;;;;;;54.47;32.03;;;7.70;99.90;;;;;;5113502;28;20055;-74
2022/03/14 05:00:20;;;;;;;54.22;30.33;;;7.70;99.90;;;;;;5114411;28;20518;-74
2022/03/14 05:02:45;;;;;;;53.28;32.28;;;7.70;99.90;;;;;;5096289;28;20114;-74
2022/03/14 05:05:11;;;;;;;61.28;32.95;;;7.70;99.90;;;;;;5114509;28;20107;-74
2022/03/14 05:07:39;;;;;;;58.17;32.80;;;7.70;99.90;;;;;;5113265;28;20016;-74
2022/03/14 05:10:08;;;;;;;60.15;33.25;;;7.70;99.90;;;;;;5114439;28;20024;-73
2022/03/14 05:12:34;;;;;;;62.08;32.97;;;7.70;99.90;;;;;;5114340;28;20020;-73
2022/03/14 05:15:01;;;;;;;61.35;33.92;;;7.60;99.90;;;;;;5113155;28;20104;-73
2022/03/14 05:17:30;;;;;;;59.28;33.58;;;7.70;99.90;;;;;;5114247;28;20023;-74
2022/03/14 05:19:56;;;;;;;64.32;33.80;;;7.70;99.90;;;;;;5112867;28;20028;-74
2022/03/14 05:22:22;;;;;;;63.35;35.85;;;7.70;99.90;;;;;;5114241;28;20027;-74
2022/03/14 05:24:47;;;;;;;62.42;33.70;;;7.70;99.90;;;;;;5113100;28;20026;-74
2022/03/14 05:27:13;;;;;;;62.60;35.22;;;7.70;99.90;;;;;;5112832;28;20039;-74
2022/03/14 05:29:38;;;;;;;57.20;32.05;;;7.70;99.90;;;;;;5112355;28;20097;-74
2022/03/14 05:32:04;;;;;;;58.70;32.70;;;7.80;99.90;;;;;;5114027;28;20042;-74
2022/03/14 05:34:31;;;;;;;56.35;30.92;;;7.80;99.90;;;;;;5114027;28;20016;-74
2022/03/14 05:36:58;;;;;;;54.65;29.50;;;7.80;99.90;;;;;;5114007;28;20149;-74
2022/03/14 05:39:23;;;;;;;54.15;28.63;;;7.80;99.90;;;;;;5112578;28;20435;-74
2022/03/14 05:41:49;;;;;;;44.47;24.00;;;7.90;99.90;;;;;;5095675;28;20107;-74
2022/03/14 05:44:14;;;;;;;40.60;23.90;;;7.90;99.90;;;;;;5113986;28;20087;-74
2022/03/14 05:46:40;;;;;;;40.50;22.33;;;7.90;99.90;;;;;;5112665;28;20019;-74
2022/03/14 05:49:06;;;;;;;39.80;21.65;;;7.90;99.90;;;;;;5113817;28;20028;-74
2022/03/14 05:51:35;;;;;;;35.50;19.52;;;7.90;99.90;;;;;;5113717;28;20032;-75
2022/03/14 05:54:00;;;;;;;33.42;18.58;;;7.90;99.90;;;;;;5113762;28;20024;-75
2022/03/14 05:56:26;;;;;;;34.67;19.02;;;7.90;99.90;;;;;;5112512;28;20026;-75
2022/03/14 05:58:51;;;;;;;37.65;19.38;;;7.90;99.90;;;;;;5113438;28;20038;-75
2022/03/14 06:01:17;;;;;;;29.67;17.90;;;7.90;99.90;;;;;;5112444;28;20533;-75
2022/03/14 06:03:43;;;;;;;31.88;17.90;;;7.90;99.90;;;;;;5113566;28;20032;-76
2022/03/14 06:06:08;;;;;;;28.60;16.27;;;7.90;99.90;;;;;;5113619;28;20030;-76
2022/03/14 06:08:34;;;;;;;29.85;15.98;;;7.90;99.90;;;;;;5112310;28;20111;-75
2022/03/14 06:10:59;;;;;;;26.10;15.77;;;7.90;99.90;;;;;;5113599;28;20419;-76
2022/03/14 06:13:25;;;;;;;23.13;12.63;;;7.90;99.90;;;;;;5113614;28;20023;-75
2022/03/14 06:15:50;;;;;;;20.80;12.88;;;7.80;99.90;;;;;;5112246;28;20027;-75
2022/03/14 06:18:16;;;;;;;21.55;12.52;;;7.80;99.90;;;;;;5113483;28;20109;-77
2022/03/14 06:20:41;;;;;;;19.10;11.93;;;7.80;99.90;;;;;;5113389;28;20027;-76
2022/03/14 06:23:07;;;;;;;22.58;11.93;;;7.80;99.90;;;;;;5112175;28;20031;-76
2022/03/14 06:25:35;;;;;;;19.25;11.60;;;7.80;99.90;;;;;;5113441;28;20099;-76
2022/03/14 06:28:00;;;;;;;21.23;12.18;;;7.80;99.90;;;;;;5112187;28;20035;-76
2022/03/14 06:30:26;;;;;;;19.48;11.25;;;7.80;99.90;;;;;;5112079;28;20019;-76
2022/03/14 06:32:51;;;;;;;19.90;10.98;;;7.80;99.90;;;;;;5113452;28;20028;-76
2022/03/14 06:35:18;;;;;;;18.90;10.60;;;7.80;99.90;;;;;;5113385;28;20028;-76
2022/03/14 06:37:44;;;;;;;17.92;10.80;;;7.70;99.90;;;;;;5112161;28;20070;-76
2022/03/14 06:40:10;;;;;;;18.63;10.07;;;7.80;99.90;;;;;;5113178;28;20393;-76
2022/03/14 06:42:41;;;;;;;15.95;9.65;;;7.80;99.90;;;;;;5113850;28;20072;-77
2022/03/14 06:45:09;;;;;;;17.08;9.52;;;7.80;99.90;;;;;;5116457;28;20026;-77
2022/03/14 06:47:35;;;;;;;14.63;8.85;;;7.70;99.90;;;;;;5117206;28;20153;-77
2022/03/14 06:50:01;;;;;;;11.65;7.32;;;7.70;99.90;;;;;;5117168;28;20065;-77
2022/03/14 06:52:26;;;;;;;12.40;7.50;;;7.70;99.90;;;;;;5115782;28;20476;-77
2022/03/14 06:54:52;;;;;;;13.65;7.63;;;7.70;99.90;;;;;;5117091;28;20027;-77
2022/03/14 06:57:17;;;;;;;12.05;7.65;;;7.70;99.90;;;;;;5132680;27;20027;-77
2022/03/14 06:59:43;;;;;;;10.75;6.63;;;7.70;99.90;;;;;;5116665;28;20517;-77
2022/03/14 07:02:08;;;;;;;11.38;6.90;;;7.70;99.90;;;;;;5116877;28;20072;-78
2022/03/14 07:04:35;;;;;;;10.50;6.60;;;7.70;99.90;;;;;;5116850;28;20026;-78
2022/03/14 07:07:04;;;;;;;8.93;6.50;;;7.70;99.90;;;;;;5116795;28;20103;-77
2022/03/14 07:09:30;;;;;;;11.25;6.93;;;7.70;99.90;;;;;;5116574;28;20088;-77
2022/03/14 07:11:56;;;;;;;11.90;7.05;;;7.70;99.90;;;;;;5132472;27;20379;-77
2022/03/14 07:14:22;;;;;;;9.15;6.57;;;7.70;99.90;;;;;;5116624;28;20107;-76
2022/03/14 07:16:49;;;;;;;9.77;5.68;;;7.70;99.90;;;;;;5116700;28;20034;-73
2022/03/14 07:19:15;;;;;;;11.70;6.47;;;7.80;99.90;;;;;;5116329;28;20024;-77
2022/03/14 07:21:41;;;;;;;11.13;5.78;;;7.80;99.90;;;;;;5114123;28;20060;-75
2022/03/14 07:24:07;;;;;;;10.85;5.75;;;7.80;99.90;;;;;;5113076;28;20058;-75
2022/03/14 07:26:33;;;;;;;11.63;5.68;;;7.80;99.90;;;;;;5101471;28;20490;-76
2022/03/14 07:28:59;;;;;;;11.85;5.93;;;7.80;99.90;;;;;;5098553;28;20055;-76
2022/03/14 07:31:24;;;;;;;9.65;5.65;;;7.80;99.90;;;;;;5114967;28;20096;-76
2022/03/14 07:33:50;;;;;;;9.30;5.47;;;7.80;99.90;;;;;;5111114;28;20496;-76
2022/03/14 07:36:17;;;;;;;7.07;5.20;;;7.80;99.90;;;;;;5114962;28;20027;-76
2022/03/14 07:38:43;;;;;;;8.70;5.57;;;7.80;99.90;;;;;;5105040;28;20020;-76
2022/03/14 07:41:08;;;;;;;12.70;5.47;;;7.80;99.90;;;;;;5114302;28;20512;-76
2022/03/14 07:43:34;;;;;;;9.98;6.07;;;7.80;99.90;;;;;;5113979;28;20435;-77
2022/03/14 07:46:01;;;;;;;9.25;6.13;;;7.90;99.90;;;;;;5113738;28;20023;-76
2022/03/14 07:48:27;;;;;;;10.82;6.30;;;7.90;99.90;;;;;;5115157;28;20461;-76
2022/03/14 07:50:52;;;;;;;8.20;5.95;;;8.00;99.90;;;;;;5111751;28;20058;-76
2022/03/14 07:53:18;;;;;;;8.93;5.95;;;8.00;99.90;;;;;;5113848;28;20477;-76
2022/03/14 07:55:43;;;;;;;11.82;6.40;;;7.90;99.90;;;;;;5111799;28;20513;-76
2022/03/14 07:58:09;;;;;;;8.93;6.28;;;8.00;99.90;;;;;;5097084;28;20524;-76
2022/03/14 08:00:35;;;;;;;10.05;6.80;;;8.00;99.90;;;;;;5113883;28;20055;-76
2022/03/14 08:03:00;;;;;;;11.93;7.80;;;8.00;99.90;;;;;;5114838;28;20024;-75
2022/03/14 08:05:26;;;;;;;12.32;7.25;;;8.00;99.90;;;;;;5113568;28;20103;-75
2022/03/14 08:07:54;;;;;;;13.07;8.68;;;8.10;99.90;;;;;;5113501;28;20028;-75
2022/03/14 08:10:19;;;;;;;13.55;8.25;;;8.00;99.90;;;;;;5114571;28;20096;-75
2022/03/14 08:12:49;;;;;;;15.10;8.93;;;8.10;99.90;;;;;;5097141;28;20454;-75
2022/03/14 08:15:22;;;;;;;17.63;9.57;;;8.10;99.90;;;;;;5114688;28;20037;-75
2022/03/14 08:17:49;;;;;;;17.23;10.25;;;8.10;99.90;;;;;;5113930;28;20027;-74
2022/03/14 08:20:15;;;;;;;17.05;10.30;;;8.10;99.90;;;;;;5101622;28;20028;-75
2022/03/14 08:22:41;;;;;;;18.30;10.65;;;8.20;99.90;;;;;;5107174;28;20031;-75
2022/03/14 08:25:07;;;;;;;20.27;12.02;;;8.20;99.90;;;;;;5079551;28;20030;-75
2022/03/14 08:27:32;;;;;;;21.13;13.40;;;8.20;99.90;;;;;;5113754;28;20396;-75
2022/03/14 08:29:58;;;;;;;25.85;14.77;;;8.20;99.90;;;;;;5111642;28;20032;-76
2022/03/14 08:32:24;;;;;;;28.80;16.08;;;8.20;99.90;;;;;;5113460;28;20036;-74
2022/03/14 08:34:53;;;;;;;31.13;16.85;;;8.30;99.90;;;;;;5105053;28;20440;-76
2022/03/14 08:37:19;;;;;;;28.02;17.95;;;8.30;99.90;;;;;;5077386;28;20059;-75
2022/03/14 08:39:46;;;;;;;35.83;19.60;;;8.30;99.90;;;;;;5110888;28;20122;-75
2022/03/14 08:42:12;;;;;;;39.55;23.48;;;8.40;99.90;;;;;;5091195;28;20012;-75
2022/03/14 08:44:37;;;;;;;39.22;23.35;;;8.40;99.90;;;;;;5109000;28;20016;-74
2022/03/14 08:47:03;;;;;;;39.25;23.65;;;8.40;99.90;;;;;;5110300;28;20020;-75
2022/03/14 08:49:28;;;;;;;47.75;25.67;;;8.50;99.90;;;;;;5108975;28;20045;-75
2022/03/14 08:51:54;;;;;;;44.30;24.48;;;8.50;99.90;;;;;;5112461;28;20095;-74
2022/03/14 08:54:19;;;;;;;47.40;24.92;;;8.60;99.90;;;;;;5103485;28;20031;-74
2022/03/14 08:56:45;;;;;;;46.42;26.70;;;8.60;99.90;;;;;;5092691;28;20024;-72
2022/03/14 08:59:12;;;;;;;46.40;27.02;;;8.60;99.90;;;;;;5111769;28;20050;-75
2022/03/14 09:01:38;;;;;;;51.95;29.45;;;8.60;99.90;;;;;;5099285;28;20031;-75
2022/03/14 09:04:05;;;;;;;51.65;29.23;;;8.70;99.90;;;;;;5109014;28;20028;-76
2022/03/14 09:06:31;;;;;;;52.05;29.08;;;8.80;99.90;;;;;;5113818;28;20019;-76
2022/03/14 09:08:57;;;;;;;52.55;29.08;;;9.00;99.90;;;;;;5101452;28;20504;-76
2022/03/14 09:11:24;;;;;;;54.90;29.00;;;9.00;99.90;;;;;;5112339;28;20777;-75
2022/03/14 09:13:49;;;;;;;48.08;28.05;;;9.10;99.90;;;;;;5104398;28;20063;-76
2022/03/14 09:16:15;;;;;;;44.42;27.13;;;9.30;99.90;;;;;;5103411;28;20056;-74
2022/03/14 09:18:40;;;;;;;46.90;27.98;;;9.20;99.90;;;;;;5112555;28;20027;-77
2022/03/14 09:21:06;;;;;;;47.17;27.25;;;9.30;99.90;;;;;;5110982;28;20114;-76
2022/03/14 09:23:31;;;;;;;46.20;28.83;;;9.30;99.90;;;;;;5111834;28;20401;-76
2022/03/14 09:25:57;;;;;;;51.35;28.50;;;9.40;99.90;;;;;;5107695;28;20040;-76
2022/03/14 09:28:23;;;;;;;49.05;28.38;;;9.40;99.90;;;;;;5112979;28;20027;-76
2022/03/14 09:30:48;;;;;;;47.10;27.50;;;9.50;99.90;;;;;;5104342;28;20023;-74
2022/03/14 09:33:14;;;;;;;49.28;27.45;;;9.60;99.90;;;;;;5112594;28;20032;-76
2022/03/14 09:35:40;;;;;;;44.40;26.75;;;9.70;99.90;;;;;;5107270;28;20023;-76
2022/03/14 09:38:06;;;;;;;39.63;23.40;;;9.80;99.90;;;;;;5094837;28;20024;-75
2022/03/14 09:40:32;;;;;;;37.13;23.25;;;10.00;99.90;;;;;;5111598;28;20051;-76
2022/03/14 09:42:59;;;;;;;41.45;22.92;;;10.10;99.90;;;;;;5108938;28;20110;-75
2022/03/14 09:45:26;;;;;;;37.40;22.20;;;10.10;99.90;;;;;;5102704;28;20043;-75
2022/03/14 09:47:57;;;;;;;38.22;23.55;;;10.10;99.90;;;;;;5113013;28;20486;-75
2022/03/14 09:50:27;;;;;;;37.22;23.35;;;10.20;99.90;;;;;;5113667;28;20019;-76
2022/03/14 09:52:55;;;;;;;40.58;24.33;;;10.20;99.90;;;;;;5095292;28;20032;-76
2022/03/14 09:55:20;;;;;;;41.45;24.92;;;10.30;99.90;;;;;;5109684;28;20028;-75
2022/03/14 09:57:47;;;;;;;38.30;22.67;;;10.40;99.90;;;;;;5111952;28;20027;-76
2022/03/14 10:00:13;;;;;;;37.72;24.00;;;10.60;99.90;;;;;;5111066;28;20465;-74
2022/03/14 10:02:39;;;;;;;37.05;23.27;;;10.70;99.90;;;;;;5092122;28;20099;-75
2022/03/14 10:05:08;;;;;;;39.38;24.15;;;10.90;99.90;;;;;;5108374;28;20024;-74
2022/03/14 10:07:35;;;;;;;37.75;24.77;;;10.90;99.90;;;;;;5106273;28;20090;-74
2022/03/14 10:10:04;;;;;;;41.08;24.73;;;10.90;99.90;;;;;;5112755;28;20486;-74
2022/03/14 10:12:30;;;;;;;40.88;26.33;;;11.00;99.90;;;;;;5098758;28;20046;-73
2022/03/14 10:14:55;;;;;;;40.83;24.88;;;10.90;99.90;;;;;;5110581;28;20401;-74
2022/03/14 10:17:21;;;;;;;45.17;27.33;;;11.00;99.90;;;;;;5113598;28;20038;-74
2022/03/14 10:19:56;;;;;;;49.60;30.85;;;10.80;99.90;;;;;;5114762;28;20071;-73
2022/03/14 10:22:22;;;;;;;47.22;30.20;;;10.60;99.90;;;;;;5115825;28;20051;-73
2022/03/14 10:24:51;;;;;;;51.95;31.30;;;10.70;99.90;;;;;;5114066;28;20027;-73
2022/03/14 10:27:19;;;;;;;49.55;29.65;;;10.80;99.90;;;;;;5091766;28;20520;-73
2022/03/14 10:29:47;;;;;;;44.70;28.85;;;10.90;99.90;;;;;;5114681;28;20024;-73
2022/03/14 10:32:30;;;;;;;50.65;31.92;;;10.90;99.90;;;;;;5115745;28;20024;-73
2022/03/14 10:35:00;;;;;;;50.37;32.37;;;10.80;99.90;;;;;;5104418;28;20034;-72
2022/03/14 10:37:28;;;;;;;52.70;31.27;;;10.70;99.90;;;;;;5115532;28;20270;-73
2022/03/14 10:40:05;;;;;;;46.50;29.42;;;10.70;99.90;;;;;;5096340;28;20032;-73
2022/03/14 10:42:38;;;;;;;50.70;29.15;;;10.60;99.90;;;;;;5115329;28;20524;-73
2022/03/14 10:45:17;;;;;;;50.65;29.70;;;10.40;99.90;;;;;;5113031;28;20023;-73
2022/03/14 10:47:44;;;;;;;43.70;28.58;;;10.40;99.90;;;;;;5092853;28;20106;-73
2022/03/14 10:50:27;;;;;;;50.42;29.70;;;10.30;99.90;;;;;;5109005;28;20023;-73
2022/03/14 10:53:01;;;;;;;45.42;29.02;;;10.30;99.90;;;;;;5109555;28;20432;-73
2022/03/14 10:55:35;;;;;;;45.83;28.67;;;10.10;99.90;;;;;;5102727;28;20028;-73
2022/03/14 10:58:09;;;;;;;49.78;29.05;;;10.10;99.90;;;;;;5109284;28;20371;-73
2022/03/14 11:00:53;;;;;;;50.47;29.98;;;10.10;99.90;;;;;;5116414;28;20512;-73
2022/03/14 11:03:40;;;;;;;52.42;30.08;;;10.20;99.90;;;;;;5109022;28;20059;-73
2022/03/14 11:06:07;;;;;;;49.08;29.63;;;10.20;99.90;;;;;;5110827;28;20027;-73
2022/03/14 11:08:38;;;;;;;46.80;27.85;;;10.30;99.90;;;;;;5115199;28;20048;-74
2022/03/14 11:11:07;;;;;;;45.05;28.58;;;10.40;99.90;;;;;;5111129;28;20505;-74
2022/03/14 11:13:37;;;;;;;44.95;28.63;;;10.50;99.90;;;;;;5112627;28;20019;-73
2022/03/14 11:16:03;;;;;;;43.50;28.52;;;10.60;99.90;;;;;;5104021;28;20035;-73
2022/03/14 11:18:29;;;;;;;47.45;29.55;;;10.70;99.90;;;;;;5099753;28;20040;-73
2022/03/14 11:20:57;;;;;;;49.33;28.75;;;10.90;99.90;;;;;;5108025;28;20024;-73
2022/03/14 11:23:23;;;;;;;42.85;25.35;;;11.10;99.90;;;;;;5101269;28;20027;-73
2022/03/14 11:25:49;;;;;;;40.15;26.70;;;11.20;99.90;;;;;;5105243;28;20043;-73
2022/03/14 11:28:18;;;;;;;42.35;27.77;;;11.10;99.90;;;;;;5113147;28;20397;-73
2022/03/14 11:30:51;;;;;;;48.10;27.77;;;10.90;99.90;;;;;;5089426;28;20088;-73
2022/03/14 11:33:17;;;;;;;42.60;26.55;;;11.00;99.90;;;;;;5086844;28;20038;-73
2022/03/14 11:35:43;;;;;;;52.42;28.77;;;10.80;99.90;;;;;;5109267;28;20024;-73
2022/03/14 11:38:10;;;;;;;46.83;27.52;;;10.80;99.90;;;;;;5114345;28;20030;-72
2022/03/14 11:40:36;;;;;;;45.78;27.92;;;10.80;99.90;;;;;;5113199;28;20392;-72
2022/03/14 11:43:02;;;;;;;45.30;26.35;;;10.80;99.90;;;;;;5114183;28;20095;-72
2022/03/14 11:45:30;;;;;;;46.17;26.42;;;10.70;99.90;;;;;;5111383;28;20054;-73
2022/03/14 11:47:56;;;;;;;40.70;26.58;;;10.60;99.90;;;;;;5114265;28;20015;-74
2022/03/14 11:50:22;;;;;;;44.72;27.27;;;10.60;99.90;;;;;;5115350;28;20039;-73
2022/03/14 11:52:51;;;;;;;44.95;27.70;;;10.50;99.90;;;;;;5108365;28;20492;-73
2022/03/14 11:55:19;;;;;;;45.78;27.42;;;10.40;99.90;;;;;;5102296;28;20038;-73
2022/03/14 11:57:45;;;;;;;42.13;25.98;;;10.40;99.90;;;;;;5109509;28;20031;-73
2022/03/14 12:03:06;;;;;;;41.17;26.00;;;10.40;99.90;;;;;;5101453;27;20397;-73
2022/03/14 12:10:54;;;;;;;49.97;29.02;;;10.40;99.90;;;;;;5101089;27;20368;-73
2022/03/14 12:13:40;;;;;;;52.35;28.05;;;10.10;99.90;;;;;;5089617;28;20016;-71
2022/03/14 12:16:42;;;;;;;44.60;26.55;;;10.20;99.90;;;;;;5087921;28;20393;-72
2022/03/14 12:19:29;;;;;;;46.22;27.20;;;10.40;99.90;;;;;;5088575;28;20062;-72
2022/03/14 12:21:56;;;;;;;46.17;26.98;;;10.60;99.90;;;;;;5087031;28;20115;-72
2022/03/14 12:27:21;;;;;;;37.97;24.33;;;10.70;99.90;;;;;;5146279;27;20418;-73
2022/03/14 12:29:49;;;;;;;44.45;23.92;;;11.00;99.90;;;;;;5130214;28;20080;-73
2022/03/14 12:32:54;;;;;;;42.35;24.95;;;11.20;99.90;;;;;;5130789;28;20019;-73
2022/03/14 12:38:17;;;;;;;25.88;15.85;;;12.10;99.90;;;;;;5109908;27;20367;-72
2022/03/14 12:40:44;;;;;;;25.93;16.17;;;12.30;99.90;;;;;;5110939;28;20415;-72
2022/03/14 12:43:15;;;;;;;25.50;16.40;;;12.60;99.90;;;;;;5092053;28;20274;-72
2022/03/14 12:45:45;;;;;;;22.98;15.13;;;12.70;99.90;;;;;;5089494;28;20078;-73
2022/03/14 12:48:25;;;;;;;23.60;15.00;;;12.60;99.90;;;;;;5099844;28;20020;-72